createdAt,value
2019-04-22T00:00:38.457Z,1.90
2019-04-22T00:03:08.998Z,2.00
2019-04-22T00:05:56.163Z,2.03
2019-04-22T00:08:30.940Z,2.30
2019-04-22T00:11:03.189Z,2.20
2019-04-22T00:13:40.978Z,1.97
2019-04-22T00:16:02.242Z,1.90
2019-04-22T00:18:42.868Z,1.80
2019-04-22T00:21:04.469Z,2.33
2019-04-22T00:23:37.022Z,1.90
2019-04-22T00:28:41.194Z,1.97
2019-04-22T00:31:20.905Z,2.10
2019-04-22T00:33:53.182Z,1.90
2019-04-22T00:36:23.539Z,2.00
2019-04-22T00:39:02.545Z,2.00
2019-04-22T00:41:28.649Z,2.10
2019-04-22T00:44:02.933Z,2.00
2019-04-22T00:46:35.719Z,1.93
2019-04-22T00:49:44.108Z,2.20
2019-04-22T00:51:36.430Z,1.90
2019-04-22T00:54:03.525Z,1.90
2019-04-22T00:56:27.726Z,1.93
2019-04-22T00:58:59.069Z,1.90
2019-04-22T01:01:31.945Z,2.13
2019-04-22T01:04:14.323Z,2.10
2019-04-22T01:06:31.706Z,1.80
2019-04-22T01:09:07.739Z,1.93
2019-04-22T01:11:33.903Z,2.30
2019-04-22T01:14:04.787Z,2.07
2019-04-22T01:16:35.647Z,2.17
2019-04-22T01:19:07.093Z,2.13
2019-04-22T01:21:40.815Z,2.10
2019-04-22T01:24:05.534Z,2.03
2019-04-22T01:26:28.981Z,1.80
2019-04-22T01:28:59.550Z,2.00
2019-04-22T01:31:20.466Z,1.93
2019-04-22T01:34:01.005Z,2.07
2019-04-22T01:36:38.434Z,2.10
2019-04-22T01:39:08.942Z,2.03
2019-04-22T01:41:48.624Z,2.00
2019-04-22T01:44:27.948Z,1.60
2019-04-22T01:49:15.947Z,1.90
2019-04-22T01:54:22.238Z,1.77
2019-04-22T01:56:49.387Z,2.17
2019-04-22T01:59:13.999Z,2.00
2019-04-22T02:01:53.098Z,2.03
2019-04-22T02:04:29.318Z,2.07
2019-04-22T02:06:50.854Z,2.20
2019-04-22T02:09:24.074Z,1.90
2019-04-22T02:14:20.681Z,1.90
2019-04-22T02:16:50.026Z,1.90
2019-04-22T02:19:23.524Z,2.10
2019-04-22T02:21:51.626Z,1.90
2019-04-22T02:24:30.117Z,1.80
2019-04-22T02:26:47.021Z,1.80
2019-04-22T02:29:26.040Z,1.77
2019-04-22T02:35:01.191Z,1.70
2019-04-22T02:36:58.094Z,1.90
2019-04-22T02:39:23.681Z,2.20
2019-04-22T02:42:02.890Z,1.73
2019-04-22T02:47:15.635Z,2.20
2019-04-22T02:52:14.574Z,2.00
2019-04-22T02:54:52.770Z,1.87
2019-04-22T02:57:16.669Z,1.70
2019-04-22T02:59:39.775Z,2.00
2019-04-22T03:02:14.591Z,1.97
2019-04-22T03:07:12.820Z,1.60
2019-04-22T03:09:41.079Z,1.90
2019-04-22T03:12:16.403Z,2.47
2019-04-22T03:14:54.850Z,1.73
2019-04-22T03:20:06.203Z,2.07
2019-04-22T03:22:20.961Z,1.83
2019-04-22T03:25:27.521Z,1.87
2019-04-22T03:27:19.442Z,1.83
2019-04-22T03:42:55.837Z,2.23
2019-04-22T03:47:54.072Z,2.00
2019-04-22T03:52:44.500Z,1.90
2019-04-22T03:55:29.131Z,2.30
2019-04-22T03:57:50.437Z,1.87
2019-04-22T04:02:56.056Z,2.00
2019-04-22T04:05:35.759Z,1.67
2019-04-22T04:20:39.640Z,2.80
2019-04-22T04:33:05.141Z,1.73
2019-04-22T04:35:44.346Z,1.93
2019-04-22T04:40:41.647Z,2.30
2019-04-22T04:43:13.717Z,2.77
2019-04-22T04:48:21.017Z,2.13
2019-04-22T04:50:58.534Z,2.17
2019-04-22T04:53:22.872Z,2.20
2019-04-22T04:55:53.910Z,2.10
2019-04-22T05:01:00.585Z,1.87
2019-04-22T05:03:30.644Z,2.20
2019-04-22T05:06:01.259Z,2.40
2019-04-22T05:08:39.038Z,2.10
2019-04-22T05:13:33.404Z,1.70
2019-04-22T05:16:11.188Z,2.03
2019-04-22T05:18:29.398Z,2.20
2019-04-22T05:21:12.337Z,2.10
2019-04-22T05:23:30.410Z,2.10
2019-04-22T05:25:57.352Z,2.10
2019-04-22T05:28:25.893Z,2.03
2019-04-22T05:30:57.135Z,2.00
2019-04-22T05:33:26.282Z,2.07
2019-04-22T05:35:53.682Z,2.00
2019-04-22T05:38:33.166Z,1.80
2019-04-22T05:40:56.363Z,1.87
2019-04-22T05:43:27.376Z,1.83
2019-04-22T05:45:58.941Z,1.90
2019-04-22T05:48:35.524Z,2.10
2019-04-22T05:51:03.758Z,1.93
2019-04-22T05:53:36.637Z,2.10
2019-04-22T05:56:06.591Z,2.00
2019-04-22T05:58:38.216Z,2.20
2019-04-22T06:03:37.878Z,2.00
2019-04-22T06:06:09.294Z,1.80
2019-04-22T06:08:42.477Z,1.77
2019-04-22T06:11:16.829Z,1.90
2019-04-22T06:13:36.625Z,1.80
2019-04-22T06:16:12.469Z,1.93
2019-04-22T06:18:39.218Z,1.77
2019-04-22T06:21:11.373Z,1.73
2019-04-22T06:23:46.883Z,1.87
2019-04-22T06:26:27.569Z,1.70
2019-04-22T06:29:07.406Z,2.00
2019-04-22T06:31:15.974Z,1.70
2019-04-22T06:33:48.512Z,1.80
2019-04-22T06:36:27.604Z,1.97
2019-04-22T06:38:46.282Z,1.97
2019-04-22T06:41:29.942Z,1.93
2019-04-22T06:44:02.516Z,1.67
2019-04-22T06:46:29.882Z,1.90
2019-04-22T06:49:01.109Z,1.90
2019-04-22T06:54:03.397Z,1.70
2019-04-22T06:56:27.381Z,2.00
2019-04-22T06:58:57.772Z,1.80
2019-04-22T07:01:35.748Z,1.80
2019-04-22T07:06:36.617Z,1.50
2019-04-22T07:09:22.022Z,1.93
2019-04-22T07:11:30.731Z,1.70
2019-04-22T07:14:07.111Z,1.90
2019-04-22T07:16:41.448Z,2.03
2019-04-22T07:19:07.714Z,2.10
2019-04-22T07:21:37.348Z,2.20
2019-04-22T07:24:28.411Z,1.90
2019-04-22T07:26:45.032Z,1.80
2019-04-22T07:29:12.099Z,1.80
2019-04-22T07:31:51.009Z,1.87
2019-04-22T07:34:20.819Z,1.50
2019-04-22T07:36:53.455Z,1.70
2019-04-22T07:39:21.530Z,1.90
2019-04-22T07:41:45.992Z,2.10
2019-04-22T07:44:16.558Z,1.80
2019-04-22T07:46:54.676Z,1.60
2019-04-22T07:49:18.247Z,1.60
2019-04-22T07:52:03.655Z,2.30
2019-04-22T07:54:24.411Z,1.70
2019-04-22T07:56:53.882Z,1.77
2019-04-22T07:59:22.278Z,1.90
2019-04-22T08:01:50.181Z,1.93
2019-04-22T08:14:20.929Z,1.80
2019-04-22T08:17:01.641Z,1.80
2019-04-22T08:19:28.181Z,1.90
2019-04-22T08:21:53.290Z,1.80
2019-04-22T08:24:22.804Z,2.00
2019-04-22T08:26:59.306Z,1.60
2019-04-22T08:29:37.195Z,1.80
2019-04-22T08:31:55.068Z,2.10
2019-04-22T08:34:24.594Z,2.70
2019-04-22T08:37:24.108Z,2.87
2019-04-22T08:39:32.969Z,2.50
2019-04-22T08:41:57.406Z,3.00
2019-04-22T08:44:52.075Z,2.47
2019-04-22T08:47:19.160Z,2.97
2019-04-22T08:49:44.371Z,2.53
2019-04-22T08:52:10.549Z,2.80
2019-04-22T08:54:43.715Z,2.33
2019-04-22T08:57:18.342Z,3.40
2019-04-22T08:59:43.278Z,2.87
2019-04-22T09:02:20.480Z,2.80
2019-04-22T09:04:45.453Z,3.37
2019-04-22T09:07:31.671Z,3.40
2019-04-22T09:10:02.209Z,3.17
2019-04-22T09:12:26.840Z,2.80
2019-04-22T09:14:47.574Z,2.97
2019-04-22T09:17:22.150Z,3.10
2019-04-22T09:19:56.339Z,3.00
2019-04-22T09:24:52.728Z,3.17
2019-04-22T09:30:01.769Z,2.43
2019-04-22T09:32:26.420Z,2.70
2019-04-22T09:35:03.342Z,3.40
2019-04-22T09:37:46.703Z,3.07
2019-04-22T09:40:10.621Z,4.70
2019-04-22T09:42:39.154Z,4.90
2019-04-22T09:50:08.420Z,3.93
2019-04-22T09:52:40.631Z,3.90
2019-04-22T09:55:12.540Z,3.83
2019-04-22T09:57:46.064Z,3.07
2019-04-22T10:00:17.122Z,3.00
2019-04-22T10:02:59.239Z,3.43
2019-04-22T10:05:20.818Z,2.87
2019-04-22T10:07:52.507Z,3.20
2019-04-22T10:12:46.546Z,2.97
2019-04-22T10:15:23.371Z,3.10
2019-04-22T10:17:54.994Z,3.13
2019-04-22T10:20:27.019Z,2.90
2019-04-22T10:22:54.770Z,2.63
2019-04-22T10:25:23.395Z,3.07
2019-04-22T10:27:56.346Z,3.10
2019-04-22T10:30:33.831Z,2.90
2019-04-22T10:32:52.407Z,2.93
2019-04-22T10:35:17.155Z,3.10
2019-04-22T10:37:42.925Z,2.97
2019-04-22T10:40:15.831Z,3.13
2019-04-22T10:42:45.327Z,3.10
2019-04-22T10:45:14.557Z,3.30
2019-04-22T10:47:43.563Z,2.80
2019-04-22T10:50:12.382Z,2.90
2019-04-22T10:52:43.455Z,3.23
2019-04-22T10:55:12.041Z,2.77
2019-04-22T10:57:41.022Z,3.03
2019-04-22T11:00:13.434Z,3.03
2019-04-22T11:02:43.581Z,2.80
2019-04-22T11:05:14.489Z,3.20
2019-04-22T11:07:53.294Z,3.70
2019-04-22T11:10:29.345Z,3.13
2019-04-22T11:12:47.383Z,3.10
2019-04-22T11:15:19.274Z,2.87
2019-04-22T11:17:49.522Z,21.57
2019-04-22T11:20:20.093Z,9.77
2019-04-22T11:22:48.968Z,5.47
2019-04-22T11:25:18.055Z,4.23
2019-04-22T11:27:47.206Z,3.77
2019-04-22T11:30:19.992Z,3.80
2019-04-22T11:32:46.778Z,3.90
2019-04-22T11:35:16.122Z,3.70
2019-04-22T11:37:44.655Z,3.47
2019-04-22T11:40:18.902Z,3.10
2019-04-22T11:42:45.990Z,3.37
2019-04-22T11:45:15.330Z,3.07
2019-04-22T11:47:45.579Z,2.83
2019-04-22T11:50:15.753Z,3.63
2019-04-22T11:52:44.734Z,3.10
2019-04-22T11:55:17.022Z,3.17
2019-04-22T11:57:45.467Z,3.10
2019-04-22T12:00:18.744Z,3.10
2019-04-22T12:02:47.420Z,3.00
2019-04-22T12:05:17.422Z,3.23
2019-04-22T12:07:47.034Z,3.13
2019-04-22T12:10:29.867Z,3.30
2019-04-22T12:12:50.093Z,3.13
2019-04-22T12:15:24.372Z,2.80
2019-04-22T12:17:55.270Z,3.33
2019-04-22T12:20:25.502Z,2.97
2019-04-22T12:22:54.168Z,3.20
2019-04-22T12:25:34.900Z,2.83
2019-04-22T12:27:55.128Z,3.20
2019-04-22T12:30:25.621Z,3.13
2019-04-22T12:32:54.665Z,2.90
2019-04-22T12:35:24.304Z,2.80
2019-04-22T12:37:59.154Z,2.93
2019-04-22T12:40:33.820Z,2.90
2019-04-22T12:42:55.331Z,2.57
2019-04-22T12:45:24.598Z,2.57
2019-04-22T12:47:53.890Z,3.30
2019-04-22T12:50:28.314Z,3.20
2019-04-22T12:52:59.635Z,3.00
2019-04-22T12:55:30.310Z,2.70
2019-04-22T12:58:00.933Z,3.23
2019-04-22T13:00:32.317Z,2.80
2019-04-22T13:03:03.152Z,3.27
2019-04-22T13:05:33.290Z,2.73
2019-04-22T13:08:02.025Z,2.40
2019-04-22T13:10:41.679Z,3.00
2019-04-22T13:13:02.815Z,3.03
2019-04-22T13:15:32.968Z,2.80
2019-04-22T13:18:12.834Z,2.90
2019-04-22T13:20:32.476Z,2.57
2019-04-22T13:23:02.147Z,3.23
2019-04-22T13:25:34.724Z,3.63
2019-04-22T13:28:03.123Z,5.37
2019-04-22T13:30:32.629Z,4.00
2019-04-22T13:33:01.048Z,3.20
2019-04-22T13:35:29.816Z,3.00
2019-04-22T13:37:59.327Z,3.50
2019-04-22T13:40:28.889Z,2.93
2019-04-22T13:42:58.511Z,2.93
2019-04-22T13:45:29.761Z,3.17
2019-04-22T13:48:18.095Z,3.03
2019-04-22T13:50:59.500Z,3.20
2019-04-22T13:53:40.288Z,2.90
2019-04-22T13:55:59.178Z,2.83
2019-04-22T13:58:12.373Z,2.83
2019-04-22T14:00:31.063Z,2.83
2019-04-22T14:03:18.391Z,2.47
2019-04-22T14:05:48.838Z,3.70
2019-04-22T14:08:18.477Z,3.70
2019-04-22T14:10:48.407Z,4.03
2019-04-22T14:13:19.500Z,3.60
2019-04-22T14:15:48.760Z,3.53
2019-04-22T14:18:18.962Z,4.20
2019-04-22T14:20:49.021Z,3.77
2019-04-22T14:23:17.618Z,11.90
2019-04-22T14:25:46.616Z,12.53
2019-04-22T14:28:17.580Z,13.50
2019-04-22T14:30:46.146Z,10.50
2019-04-22T14:33:16.001Z,7.70
2019-04-22T14:35:46.600Z,7.63
2019-04-22T14:38:18.351Z,6.77
2019-04-22T14:40:48.223Z,4.93
2019-04-22T14:43:40.379Z,4.40
2019-04-22T14:46:17.893Z,4.60
2019-04-22T14:48:45.764Z,4.13
2019-04-22T14:51:07.103Z,3.23
2019-04-22T14:53:43.038Z,3.67
2019-04-22T14:55:50.473Z,3.50
2019-04-22T14:58:19.262Z,3.63
2019-04-22T15:00:51.443Z,2.87
2019-04-22T15:03:21.888Z,3.00
2019-04-22T15:05:56.063Z,3.20
2019-04-22T15:08:24.840Z,3.73
2019-04-22T15:10:54.100Z,5.60
2019-04-22T15:13:23.443Z,7.23
2019-04-22T15:15:58.647Z,7.60
2019-04-22T15:18:37.714Z,7.10
2019-04-22T15:21:08.970Z,6.20
2019-04-22T15:23:38.481Z,6.07
2019-04-22T15:26:08.411Z,5.50
2019-04-22T15:28:37.449Z,4.97
2019-04-22T15:31:09.138Z,3.80
2019-04-22T15:33:37.727Z,3.77
2019-04-22T15:36:07.645Z,3.80
2019-04-22T15:38:36.494Z,3.93
2019-04-22T15:41:06.965Z,3.40
2019-04-22T15:43:39.515Z,3.40
2019-04-22T15:46:09.867Z,3.50
2019-04-22T15:48:39.850Z,3.57
2019-04-22T15:51:08.922Z,3.03
2019-04-22T15:53:37.966Z,2.50
2019-04-22T15:56:06.468Z,2.90
2019-04-22T15:58:37.453Z,2.60
2019-04-22T16:01:15.129Z,2.97
2019-04-22T16:03:38.864Z,2.63
2019-04-22T16:06:08.432Z,2.57
2019-04-22T16:08:39.013Z,2.63
2019-04-22T16:11:09.660Z,2.57
2019-04-22T16:13:40.032Z,2.57
2019-04-22T16:16:08.569Z,2.50
2019-04-22T16:18:38.101Z,2.40
2019-04-22T16:21:09.046Z,2.50
2019-04-22T16:23:54.322Z,2.33
2019-04-22T16:26:42.619Z,2.70
2019-04-22T16:29:13.518Z,2.90
2019-04-22T16:31:43.025Z,3.13
2019-04-22T16:34:13.273Z,3.00
2019-04-22T16:36:42.900Z,2.73
2019-04-22T16:39:13.074Z,2.77
2019-04-22T16:41:44.562Z,2.70
2019-04-22T16:44:14.388Z,2.60
2019-04-22T16:46:47.737Z,2.57
2019-04-22T16:49:16.704Z,2.70
2019-04-22T16:51:47.825Z,2.20
2019-04-22T16:54:17.988Z,2.20
2019-04-22T16:56:48.013Z,2.77
2019-04-22T16:59:17.004Z,2.27
2019-04-22T17:01:48.490Z,2.77
2019-04-22T17:04:22.806Z,2.30
2019-04-22T17:06:53.476Z,2.03
2019-04-22T17:09:23.652Z,2.53
2019-04-22T17:11:52.291Z,2.50
2019-04-22T17:14:28.415Z,2.83
2019-04-22T17:16:52.735Z,2.67
2019-04-22T17:19:21.701Z,2.63
2019-04-22T17:21:51.307Z,2.93
2019-04-22T17:24:21.652Z,2.83
2019-04-22T17:26:52.604Z,2.93
2019-04-22T17:29:21.034Z,2.57
2019-04-22T17:31:56.621Z,2.87
2019-04-22T17:34:21.192Z,3.10
2019-04-22T17:36:51.130Z,3.07
2019-04-22T17:39:31.636Z,2.53
2019-04-22T17:42:11.467Z,2.60
2019-04-22T17:44:48.695Z,2.40
2019-04-22T17:47:16.663Z,2.60
2019-04-22T17:49:54.100Z,2.40
2019-04-22T17:52:24.738Z,2.33
2019-04-22T17:54:51.832Z,2.33
2019-04-22T17:57:46.408Z,2.10
2019-04-22T18:00:04.804Z,2.20
2019-04-22T18:02:32.331Z,2.47
2019-04-22T18:04:53.942Z,2.40
2019-04-22T18:07:47.543Z,2.83
2019-04-22T18:12:50.055Z,2.40
2019-04-22T18:15:17.876Z,2.40
2019-04-22T18:17:57.052Z,2.30
2019-04-22T18:20:17.705Z,2.10
2019-04-22T18:22:41.812Z,2.27
2019-04-22T18:25:12.900Z,2.27
2019-04-22T18:28:03.845Z,2.27
2019-04-22T18:30:20.374Z,2.60
2019-04-22T18:32:55.534Z,2.30
2019-04-22T18:35:29.733Z,2.97
2019-04-22T18:38:05.094Z,2.53
2019-04-22T18:40:30.584Z,2.40
2019-04-22T18:43:03.685Z,2.40
2019-04-22T18:45:52.760Z,2.40
2019-04-22T18:48:02.564Z,2.40
2019-04-22T18:50:45.576Z,2.40
2019-04-22T18:53:23.408Z,2.40
2019-04-22T18:56:14.026Z,2.67
2019-04-22T18:58:35.802Z,2.50
2019-04-22T19:00:52.890Z,2.23
2019-04-22T19:03:28.326Z,2.30
2019-04-22T19:06:31.893Z,2.83
2019-04-22T19:08:50.236Z,2.60
2019-04-22T19:11:20.961Z,2.23
2019-04-22T19:19:20.497Z,2.30
2019-04-22T19:21:25.677Z,2.40
2019-04-22T19:23:59.950Z,2.00
2019-04-22T19:26:48.249Z,2.43
2019-04-22T19:29:01.023Z,2.33
2019-04-22T19:31:37.341Z,2.17
2019-04-22T19:34:04.575Z,2.27
2019-04-22T19:36:43.627Z,2.40
2019-04-22T19:39:04.333Z,2.10
2019-04-22T19:41:41.016Z,2.40
2019-04-22T19:44:16.014Z,2.63
2019-04-22T19:46:43.757Z,2.30
2019-04-22T19:49:29.083Z,2.40
2019-04-22T19:51:52.655Z,1.83
2019-04-22T19:54:14.054Z,2.00
2019-04-22T19:56:38.672Z,2.53
2019-04-22T19:59:11.830Z,2.20
2019-04-22T20:01:55.341Z,2.17
2019-04-22T20:04:37.720Z,1.97
2019-04-22T20:07:11.243Z,2.20
2019-04-22T20:09:49.292Z,2.43
2019-04-22T20:12:13.529Z,2.20
2019-04-22T20:14:48.096Z,2.27
2019-04-22T20:17:24.158Z,2.30
2019-04-22T20:19:56.034Z,2.40
2019-04-22T20:22:24.513Z,2.43
2019-04-22T20:24:44.796Z,2.70
2019-04-22T20:27:28.532Z,2.17
2019-04-22T20:29:55.130Z,2.27
2019-04-22T20:32:26.510Z,2.00
2019-04-22T20:35:06.023Z,2.00
2019-04-22T20:37:35.700Z,2.20
2019-04-22T20:40:00.490Z,2.20
2019-04-22T20:45:03.949Z,2.10
2019-04-22T20:47:33.372Z,2.43
2019-04-22T20:50:05.317Z,2.47
2019-04-22T20:52:43.582Z,2.00
2019-04-22T20:55:16.311Z,2.20
2019-04-22T20:57:53.401Z,2.30
2019-04-22T21:00:16.897Z,2.50
2019-04-22T21:02:46.493Z,2.07
2019-04-22T21:05:17.967Z,2.23
2019-04-22T21:07:55.554Z,2.03
2019-04-22T21:10:23.274Z,2.10
2019-04-22T21:12:59.073Z,2.10
2019-04-22T21:15:42.503Z,2.20
2019-04-22T21:18:01.165Z,2.00
2019-04-22T21:20:36.596Z,2.03
2019-04-22T21:23:05.788Z,2.10
2019-04-22T21:25:29.230Z,2.20
2019-04-22T21:28:09.612Z,2.40
2019-04-22T21:30:37.486Z,2.07
2019-04-22T21:33:08.280Z,2.07
2019-04-22T21:36:03.003Z,2.57
2019-04-22T21:38:25.214Z,2.10
2019-04-22T21:40:47.525Z,2.30
2019-04-22T21:43:24.512Z,2.10
2019-04-22T21:45:55.479Z,2.30
2019-04-22T21:48:31.396Z,2.10
2019-04-22T21:50:59.482Z,2.07
2019-04-22T21:53:33.048Z,2.10
2019-04-22T21:56:11.729Z,2.27
2019-04-22T21:58:31.268Z,1.93
2019-04-22T22:01:06.404Z,1.90
2019-04-22T22:03:35.936Z,2.30
2019-04-22T22:06:08.712Z,2.17
2019-04-22T22:08:56.850Z,1.90
2019-04-22T22:11:24.496Z,2.00
2019-04-22T22:14:04.563Z,2.07
2019-04-22T22:16:27.373Z,2.13
2019-04-22T22:19:11.726Z,1.97
2019-04-22T22:24:18.508Z,2.00
2019-04-22T22:26:46.547Z,2.10
2019-04-22T22:29:31.840Z,2.20
2019-04-22T22:31:47.056Z,1.97
2019-04-22T22:34:21.363Z,2.13
2019-04-22T22:36:40.844Z,2.10
2019-04-22T22:39:18.825Z,1.70
2019-04-22T22:41:34.191Z,1.87
2019-04-22T22:44:18.270Z,2.10
2019-04-22T22:47:06.415Z,2.07
2019-04-22T22:49:33.095Z,2.07
2019-04-22T22:52:34.535Z,2.17
2019-04-22T22:54:37.476Z,2.10
2019-04-22T22:57:17.373Z,2.17
2019-04-22T22:59:38.217Z,1.83
2019-04-22T23:02:07.818Z,2.07
2019-04-22T23:04:39.573Z,2.00
2019-04-22T23:07:13.002Z,2.10
2019-04-22T23:09:37.690Z,2.20
2019-04-22T23:14:37.021Z,1.90
2019-04-22T23:16:57.700Z,2.10
2019-04-22T23:19:19.975Z,2.17
2019-04-22T23:21:52.644Z,2.00
2019-04-22T23:24:50.580Z,1.90
2019-04-22T23:27:40.168Z,2.13
2019-04-22T23:30:08.879Z,2.00
2019-04-22T23:32:39.937Z,1.83
2019-04-22T23:35:17.970Z,1.97
2019-04-22T23:37:49.963Z,2.20
2019-04-22T23:40:29.387Z,2.00
2019-04-22T23:43:01.971Z,1.73
2019-04-22T23:45:29.191Z,2.03
2019-04-22T23:47:43.546Z,1.70
2019-04-22T23:50:29.353Z,1.83
2019-04-22T23:52:58.427Z,1.60
2019-04-22T23:55:27.825Z,1.90
2019-04-22T23:58:27.567Z,1.93
